createdAt,value
2022-07-25T00:02:01.058Z,21.80
2022-07-25T00:14:49.532Z,26.50
2022-07-25T04:14:31.089Z,92.50
2022-07-25T04:58:38.227Z,94.40
2022-07-25T05:40:48.384Z,87.10
2022-07-25T05:44:18.205Z,85.90
2022-07-25T05:48:19.764Z,86.00
2022-07-25T06:02:57.320Z,80.40
2022-07-25T06:05:55.443Z,79.10
2022-07-25T06:09:13.143Z,77.90
2022-07-25T06:15:40.679Z,75.60
2022-07-25T06:22:47.414Z,72.50
2022-07-25T06:26:19.764Z,71.10
2022-07-25T06:28:49.406Z,70.20
2022-07-25T06:31:17.518Z,68.80
2022-07-25T06:33:46.667Z,68.00
2022-07-25T06:36:14.678Z,68.10
2022-07-25T06:38:42.659Z,67.00
2022-07-25T06:41:15.591Z,66.70
2022-07-25T06:43:43.716Z,65.80
2022-07-25T06:46:13.127Z,65.90
2022-07-25T06:48:41.758Z,64.30
2022-07-25T06:51:54.330Z,63.70
2022-07-25T07:39:21.326Z,51.60
2022-07-25T08:04:05.898Z,41.00
2022-07-25T08:06:58.562Z,26.00
2022-07-25T08:09:27.037Z,24.60
2022-07-25T08:11:55.046Z,22.40
2022-07-25T08:14:23.682Z,19.60
2022-07-25T08:20:36.429Z,16.40
2022-07-25T08:23:02.337Z,13.70
2022-07-25T08:25:31.653Z,10.20
2022-07-25T08:28:00.375Z,6.90
2022-07-25T08:30:31.639Z,6.00
2022-07-25T08:33:01.266Z,3.50
2022-07-25T08:35:30.187Z,1.00
2022-07-25T08:37:59.634Z,1.00
2022-07-25T08:40:31.616Z,1.00
2022-07-25T08:43:11.605Z,1.00
2022-07-25T08:46:17.699Z,1.00
2022-07-25T08:49:35.546Z,1.00
2022-07-25T08:53:16.116Z,1.00
2022-07-25T08:55:56.812Z,1.00
2022-07-25T08:58:24.808Z,1.00
2022-07-25T09:00:53.454Z,1.00
2022-07-25T09:03:21.426Z,1.00
2022-07-25T09:05:49.452Z,1.00
2022-07-25T09:08:18.701Z,1.00
2022-07-25T09:10:49.772Z,1.00
2022-07-25T09:13:18.858Z,1.00
2022-07-25T09:16:15.020Z,1.00
2022-07-25T09:19:13.369Z,1.00
2022-07-25T09:21:47.267Z,1.00
2022-07-25T09:25:02.221Z,1.00
2022-07-25T09:27:35.909Z,1.00
2022-07-25T09:30:14.406Z,1.00
2022-07-25T09:32:42.810Z,1.00
2022-07-25T09:35:11.541Z,1.00
2022-07-25T09:37:39.577Z,1.00
2022-07-25T09:40:15.315Z,1.00
2022-07-25T09:42:47.597Z,1.00
2022-07-25T09:45:16.246Z,1.00
2022-07-25T09:47:55.234Z,1.00
2022-07-25T09:50:27.709Z,1.00
2022-07-25T09:52:57.582Z,1.00
2022-07-25T09:55:26.674Z,1.00
2022-07-25T09:57:56.156Z,1.00
2022-07-25T10:00:27.327Z,1.00
2022-07-25T10:03:11.465Z,1.00
2022-07-25T10:06:04.163Z,1.00
2022-07-25T10:08:37.242Z,1.00
2022-07-25T10:11:07.066Z,1.00
2022-07-25T10:13:40.352Z,1.00
2022-07-25T10:16:17.729Z,1.00
2022-07-25T10:18:50.882Z,1.00
2022-07-25T10:21:27.004Z,1.00
2022-07-25T10:24:04.602Z,1.00
2022-07-25T10:26:34.082Z,1.00
2022-07-25T10:29:09.957Z,1.00
2022-07-25T10:31:40.191Z,1.00
2022-07-25T10:34:11.794Z,1.00
2022-07-25T10:36:45.102Z,1.00
2022-07-25T10:39:15.790Z,1.00
2022-07-25T10:41:45.426Z,1.00
2022-07-25T10:44:16.749Z,1.00
2022-07-25T10:46:46.144Z,1.00
2022-07-25T10:49:29.094Z,1.00
2022-07-25T10:52:03.194Z,1.00
2022-07-25T10:54:36.272Z,1.00
2022-07-25T10:57:06.400Z,1.00
2022-07-25T10:59:38.736Z,1.00
2022-07-25T11:02:09.514Z,1.00
2022-07-25T11:04:38.341Z,1.00
2022-07-25T11:07:10.598Z,1.00
2022-07-25T11:09:39.046Z,1.00
2022-07-25T11:12:08.092Z,1.00
2022-07-25T11:14:41.296Z,1.00
2022-07-25T11:17:19.171Z,1.00
2022-07-25T11:19:56.719Z,1.00
2022-07-25T11:22:24.987Z,1.00
2022-07-25T11:24:53.284Z,1.00
2022-07-25T11:27:26.737Z,1.00
2022-07-25T11:30:06.446Z,1.00
2022-07-25T11:32:40.390Z,1.00
2022-07-25T11:35:14.990Z,1.00
2022-07-25T11:37:51.992Z,1.00
2022-07-25T11:40:22.848Z,1.00
2022-07-25T11:43:27.164Z,1.00
2022-07-25T11:46:07.756Z,1.00
2022-07-25T11:48:57.255Z,1.00
2022-07-25T11:52:05.644Z,1.00
2022-07-25T11:54:33.595Z,1.00
2022-07-25T11:57:01.633Z,1.00
2022-07-25T11:59:30.180Z,1.00
2022-07-25T12:01:59.610Z,1.00
2022-07-25T12:04:28.651Z,1.00
2022-07-25T12:07:07.876Z,1.00
2022-07-25T12:09:36.244Z,1.00
2022-07-25T12:12:05.360Z,1.00
2022-07-25T12:14:43.751Z,1.00
2022-07-25T12:17:13.583Z,1.00
2022-07-25T12:19:44.329Z,1.00
2022-07-25T12:22:12.246Z,1.00
2022-07-25T12:24:40.237Z,1.00
2022-07-25T12:27:08.634Z,1.00
2022-07-25T12:29:36.655Z,1.00
2022-07-25T12:32:04.813Z,1.00
2022-07-25T12:34:38.088Z,1.00
2022-07-25T12:37:06.331Z,1.00
2022-07-25T12:39:34.589Z,1.00
2022-07-25T12:42:02.539Z,1.00
2022-07-25T12:44:30.642Z,1.00
2022-07-25T12:46:58.627Z,1.00
2022-07-25T12:49:26.669Z,1.00
2022-07-25T12:51:58.193Z,1.00
2022-07-25T12:54:26.314Z,1.00
2022-07-25T12:56:54.264Z,1.00
2022-07-25T12:59:22.767Z,1.00
2022-07-25T13:01:51.076Z,1.00
2022-07-25T13:04:19.122Z,1.00
2022-07-25T13:06:47.229Z,1.00
2022-07-25T13:09:16.589Z,1.00
2022-07-25T13:11:44.598Z,1.00
2022-07-25T13:14:13.061Z,1.00
2022-07-25T13:16:41.487Z,1.00
2022-07-25T13:19:09.804Z,1.00
2022-07-25T13:21:38.876Z,1.00
2022-07-25T13:24:08.156Z,1.00
2022-07-25T13:26:38.926Z,1.00
2022-07-25T13:29:09.730Z,1.00
2022-07-25T13:31:39.438Z,1.00
2022-07-25T13:34:09.071Z,1.00
2022-07-25T13:36:38.515Z,1.00
2022-07-25T13:39:07.808Z,1.00
2022-07-25T13:41:37.483Z,1.00
2022-07-25T13:44:06.245Z,1.00
2022-07-25T13:46:35.636Z,1.00
2022-07-25T13:49:04.182Z,1.00
2022-07-25T13:51:32.391Z,1.00
2022-07-25T13:54:03.539Z,1.00
2022-07-25T13:56:32.971Z,1.00
2022-07-25T13:59:04.672Z,1.00
2022-07-25T14:01:33.508Z,1.00
2022-07-25T14:04:01.557Z,1.00
2022-07-25T14:06:29.498Z,1.00
2022-07-25T14:08:57.855Z,1.00
2022-07-25T14:11:30.605Z,1.00
2022-07-25T14:13:58.812Z,1.00
2022-07-25T14:16:28.311Z,1.00
2022-07-25T14:18:56.256Z,1.00
2022-07-25T14:21:24.280Z,1.00
2022-07-25T14:23:54.270Z,1.00
2022-07-25T14:26:22.240Z,1.00
2022-07-25T14:28:51.149Z,1.00
2022-07-25T14:31:19.206Z,1.00
2022-07-25T14:33:48.689Z,1.00
2022-07-25T14:36:17.293Z,1.00
2022-07-25T14:38:48.169Z,1.00
2022-07-25T14:41:16.715Z,1.00
2022-07-25T14:43:45.421Z,1.00
2022-07-25T14:46:13.456Z,1.00
2022-07-25T14:48:41.898Z,1.00
2022-07-25T14:51:11.395Z,1.00
2022-07-25T14:53:40.259Z,1.00
2022-07-25T14:56:08.753Z,1.00
2022-07-25T14:58:38.371Z,1.00
2022-07-25T15:01:06.561Z,1.00
2022-07-25T15:03:34.594Z,1.00
2022-07-25T15:06:03.435Z,1.00
2022-07-25T15:08:32.692Z,1.00
2022-07-25T15:11:00.630Z,1.00
2022-07-25T15:13:31.615Z,1.00
2022-07-25T15:16:00.632Z,1.00
2022-07-25T15:18:29.317Z,1.00
2022-07-25T15:20:57.417Z,1.00
2022-07-25T15:23:29.751Z,1.00
2022-07-25T15:26:02.774Z,1.00
2022-07-25T15:28:31.591Z,1.00
2022-07-25T15:31:00.209Z,1.00
2022-07-25T15:33:28.283Z,1.00
2022-07-25T15:35:56.430Z,1.00
2022-07-25T15:38:24.812Z,1.00
2022-07-25T15:40:53.132Z,1.00
2022-07-25T15:43:22.514Z,1.00
2022-07-25T15:45:50.821Z,1.00
2022-07-25T15:48:19.830Z,1.00
2022-07-25T15:50:52.480Z,1.00
2022-07-25T15:53:20.563Z,1.00
2022-07-25T15:55:48.747Z,1.00
2022-07-25T15:58:17.102Z,1.00
2022-07-25T16:00:46.799Z,1.00
2022-07-25T16:03:36.397Z,1.00
2022-07-25T16:18:27.461Z,1.00
2022-07-25T16:21:19.496Z,1.00
2022-07-25T16:27:40.707Z,1.00
2022-07-25T16:30:10.095Z,1.00
2022-07-25T16:32:39.401Z,99.90
2022-07-25T16:35:09.428Z,99.90
2022-07-25T16:37:37.569Z,99.90
2022-07-25T16:40:08.338Z,99.90
2022-07-25T16:42:36.666Z,99.90
2022-07-25T16:45:23.875Z,99.90
2022-07-25T16:48:03.955Z,99.90
2022-07-25T16:50:33.782Z,99.90
2022-07-25T16:53:14.036Z,99.90
2022-07-25T16:55:51.834Z,99.90
2022-07-25T16:58:24.998Z,99.90
2022-07-25T17:01:19.385Z,99.90
2022-07-25T17:04:20.892Z,99.90
2022-07-25T17:29:17.215Z,99.90
2022-07-25T17:40:11.677Z,99.90
2022-07-25T20:28:36.444Z,99.90
2022-07-25T20:35:28.774Z,99.90
2022-07-25T20:45:54.439Z,99.90
2022-07-25T21:08:26.836Z,99.90
2022-07-25T21:19:03.229Z,99.90
2022-07-25T21:21:41.841Z,99.90
2022-07-25T21:24:11.929Z,99.90
2022-07-25T21:26:43.198Z,99.90
2022-07-25T21:29:11.695Z,99.90
2022-07-25T21:31:42.644Z,99.90
2022-07-25T21:34:21.810Z,99.90
2022-07-25T21:40:21.784Z,99.90
2022-07-25T22:36:58.472Z,99.90
2022-07-25T23:36:37.802Z,99.90
2022-07-25T23:40:29.305Z,99.90
